createdAt,value
2023-10-23T00:01:24.822Z,11.65
2023-10-23T00:03:52.893Z,11.67
2023-10-23T00:06:20.931Z,11.66
2023-10-23T00:08:48.873Z,11.61
2023-10-23T00:11:25.186Z,11.62
2023-10-23T00:13:53.165Z,11.54
2023-10-23T00:16:21.570Z,11.49
2023-10-23T00:18:50.443Z,11.42
2023-10-23T00:21:18.686Z,11.42
2023-10-23T00:23:46.578Z,11.42
2023-10-23T00:26:14.556Z,11.36
2023-10-23T00:28:44.031Z,11.28
2023-10-23T00:31:11.941Z,11.27
2023-10-23T00:33:40.061Z,11.33
2023-10-23T00:36:08.221Z,11.26
2023-10-23T00:38:36.170Z,11.25
2023-10-23T00:41:04.170Z,11.20
2023-10-23T00:43:32.205Z,11.19
2023-10-23T00:46:02.777Z,11.18
2023-10-23T00:48:30.876Z,11.17
2023-10-23T00:51:00.572Z,11.19
2023-10-23T00:53:31.779Z,11.21
2023-10-23T00:56:00.887Z,11.24
2023-10-23T00:58:29.389Z,11.20
2023-10-23T01:00:59.683Z,11.17
2023-10-23T01:03:29.072Z,11.19
2023-10-23T01:05:57.149Z,11.22
2023-10-23T01:08:25.227Z,11.20
2023-10-23T01:10:53.461Z,11.24
2023-10-23T01:13:21.447Z,11.23
2023-10-23T01:15:49.830Z,11.28
2023-10-23T01:18:17.774Z,11.29
2023-10-23T01:20:47.467Z,11.24
2023-10-23T01:23:15.520Z,11.18
2023-10-23T01:25:44.855Z,11.20
2023-10-23T01:28:12.884Z,11.22
2023-10-23T01:30:41.859Z,11.22
2023-10-23T01:33:09.992Z,11.14
2023-10-23T01:35:38.024Z,11.15
2023-10-23T01:38:05.943Z,11.19
2023-10-23T01:40:34.080Z,11.13
2023-10-23T01:43:03.379Z,11.22
2023-10-23T01:45:31.379Z,11.20
2023-10-23T01:47:59.346Z,11.22
2023-10-23T01:50:27.226Z,11.17
2023-10-23T01:52:55.232Z,11.14
2023-10-23T01:55:23.114Z,11.16
2023-10-23T01:57:51.051Z,11.13
2023-10-23T02:00:20.709Z,11.10
2023-10-23T02:02:48.803Z,10.99
2023-10-23T02:05:16.773Z,10.94
2023-10-23T02:07:45.201Z,10.92
2023-10-23T02:10:13.145Z,10.91
2023-10-23T02:12:41.077Z,10.91
2023-10-23T02:15:11.452Z,10.85
2023-10-23T02:17:40.941Z,10.83
2023-10-23T02:20:09.480Z,10.81
2023-10-23T02:22:37.854Z,10.90
2023-10-23T02:25:06.839Z,10.89
2023-10-23T02:27:34.804Z,10.81
2023-10-23T02:30:03.017Z,10.78
2023-10-23T02:32:31.046Z,10.77
2023-10-23T02:35:00.380Z,10.73
2023-10-23T02:37:28.500Z,10.70
2023-10-23T02:39:58.266Z,10.74
2023-10-23T02:42:26.477Z,10.72
2023-10-23T02:44:55.347Z,10.76
2023-10-23T02:47:23.241Z,10.77
2023-10-23T02:49:51.212Z,10.69
2023-10-23T02:52:22.195Z,10.70
2023-10-23T02:54:51.783Z,10.70
2023-10-23T02:57:20.039Z,10.71
2023-10-23T02:59:49.024Z,10.67
2023-10-23T03:02:17.884Z,10.61
2023-10-23T03:04:45.866Z,10.62
2023-10-23T03:07:14.583Z,10.67
2023-10-23T03:09:44.189Z,10.62
2023-10-23T03:12:12.228Z,10.57
2023-10-23T03:14:40.215Z,10.61
2023-10-23T03:17:08.613Z,10.57
2023-10-23T03:19:36.636Z,10.53
2023-10-23T03:22:05.312Z,10.51
2023-10-23T03:24:33.863Z,10.47
2023-10-23T03:27:03.143Z,10.42
2023-10-23T03:29:31.044Z,10.42
2023-10-23T03:31:58.993Z,10.44
2023-10-23T03:34:27.210Z,10.34
2023-10-23T03:36:55.356Z,10.39
2023-10-23T03:39:23.348Z,10.35
2023-10-23T03:41:51.254Z,10.34
2023-10-23T03:44:20.632Z,10.31
2023-10-23T03:46:48.626Z,10.27
2023-10-23T03:49:16.691Z,10.27
2023-10-23T03:51:44.783Z,10.23
2023-10-23T03:54:12.705Z,10.20
2023-10-23T03:56:40.763Z,10.24
2023-10-23T03:59:08.772Z,10.24
2023-10-23T04:01:38.206Z,10.18
2023-10-23T04:04:06.541Z,10.16
2023-10-23T04:06:34.693Z,10.16
2023-10-23T04:09:02.676Z,10.16
2023-10-23T04:11:30.643Z,10.14
2023-10-23T04:13:58.663Z,10.14
2023-10-23T04:16:26.542Z,10.12
2023-10-23T04:18:56.068Z,10.10
2023-10-23T04:25:04.887Z,9.96
2023-10-23T04:27:32.990Z,9.93
2023-10-23T04:30:01.837Z,9.96
2023-10-23T04:32:30.078Z,9.94
2023-10-23T04:34:59.437Z,9.94
2023-10-23T04:37:27.649Z,9.96
2023-10-23T04:39:55.660Z,9.96
2023-10-23T04:42:23.708Z,10.00
2023-10-23T04:44:51.613Z,9.93
2023-10-23T04:47:19.466Z,9.91
2023-10-23T04:49:48.751Z,9.89
2023-10-23T04:52:18.160Z,9.81
2023-10-23T04:54:46.809Z,9.82
2023-10-23T04:57:14.795Z,9.82
2023-10-23T04:59:42.856Z,9.76
2023-10-23T05:02:10.799Z,9.72
2023-10-23T05:04:38.896Z,9.69
2023-10-23T05:07:07.002Z,9.70
2023-10-23T05:09:36.512Z,9.70
2023-10-23T05:12:06.199Z,9.69
2023-10-23T05:14:34.535Z,9.72
2023-10-23T05:17:02.484Z,9.74
2023-10-23T05:19:30.432Z,9.72
2023-10-23T05:21:58.347Z,9.71
2023-10-23T05:24:27.949Z,9.77
2023-10-23T05:26:57.560Z,9.81
2023-10-23T05:29:25.435Z,9.71
2023-10-23T05:31:53.327Z,9.63
2023-10-23T05:34:21.254Z,9.62
2023-10-23T05:36:49.270Z,9.65
2023-10-23T05:39:17.679Z,9.67
2023-10-23T05:41:45.596Z,9.68
2023-10-23T05:44:14.902Z,9.69
2023-10-23T05:46:42.845Z,9.64
2023-10-23T05:49:10.874Z,9.49
2023-10-23T05:51:38.788Z,9.44
2023-10-23T05:54:07.087Z,9.42
2023-10-23T05:56:35.279Z,9.42
2023-10-23T05:59:03.298Z,9.44
2023-10-23T06:01:32.622Z,9.41
2023-10-23T06:04:00.636Z,9.42
2023-10-23T06:06:28.642Z,9.45
2023-10-23T06:08:56.560Z,9.40
2023-10-23T06:11:25.530Z,9.41
2023-10-23T06:13:53.418Z,9.43
2023-10-23T06:16:21.311Z,9.44
2023-10-23T06:18:50.724Z,9.44
2023-10-23T06:21:19.698Z,9.38
2023-10-23T06:23:48.632Z,9.33
2023-10-23T06:26:16.574Z,9.40
2023-10-23T06:28:44.504Z,9.41
2023-10-23T06:31:13.249Z,9.38
2023-10-23T06:33:43.842Z,9.39
2023-10-23T06:36:13.391Z,9.42
2023-10-23T06:38:41.592Z,9.44
2023-10-23T06:41:10.057Z,9.54
2023-10-23T06:43:38.492Z,9.55
2023-10-23T06:46:07.345Z,9.54
2023-10-23T06:48:35.852Z,9.52
2023-10-23T06:51:04.945Z,9.54
2023-10-23T06:53:35.900Z,9.65
2023-10-23T06:56:04.058Z,9.62
2023-10-23T06:58:31.987Z,9.63
2023-10-23T07:01:07.516Z,9.71
2023-10-23T07:03:35.705Z,9.70
2023-10-23T07:06:06.650Z,9.70
2023-10-23T07:08:38.531Z,9.75
2023-10-23T07:11:13.761Z,9.74
2023-10-23T07:13:41.769Z,9.71
2023-10-23T07:16:10.308Z,9.71
2023-10-23T07:18:38.336Z,9.67
2023-10-23T07:21:06.320Z,9.74
2023-10-23T07:23:36.020Z,9.79
2023-10-23T07:26:08.911Z,9.78
2023-10-23T07:28:37.476Z,9.80
2023-10-23T07:31:05.477Z,9.90
2023-10-23T07:33:34.024Z,9.96
2023-10-23T07:36:03.801Z,9.97
2023-10-23T07:38:31.812Z,9.95
2023-10-23T07:41:01.699Z,9.86
2023-10-23T07:43:30.600Z,9.98
2023-10-23T07:48:30.412Z,10.31
2023-10-23T07:51:00.447Z,10.43
2023-10-23T07:53:28.882Z,10.47
2023-10-23T07:55:56.929Z,10.52
2023-10-23T07:58:26.258Z,10.61
2023-10-23T08:01:06.077Z,10.67
2023-10-23T08:03:35.585Z,10.72
2023-10-23T08:06:05.010Z,10.78
2023-10-23T08:08:35.286Z,10.83
2023-10-23T08:11:05.536Z,10.97
2023-10-23T08:13:36.105Z,11.06
2023-10-23T08:16:05.540Z,11.18
2023-10-23T08:18:39.781Z,11.27
2023-10-23T08:21:12.747Z,11.20
2023-10-23T08:23:41.172Z,11.21
2023-10-23T08:26:09.416Z,11.28
2023-10-23T08:31:20.378Z,11.30
2023-10-23T08:33:53.369Z,11.31
2023-10-23T08:36:21.322Z,11.26
2023-10-23T08:38:49.211Z,11.26
2023-10-23T08:41:17.124Z,11.31
2023-10-23T08:43:46.656Z,11.28
2023-10-23T08:46:15.439Z,11.15
2023-10-23T08:48:43.592Z,11.24
2023-10-23T08:51:11.633Z,11.29
2023-10-23T08:54:06.885Z,11.32
2023-10-23T08:56:39.911Z,11.32
2023-10-23T08:59:11.397Z,11.44
2023-10-23T09:01:39.977Z,11.45
2023-10-23T09:04:11.423Z,11.48
2023-10-23T09:06:40.370Z,11.53
2023-10-23T09:09:08.603Z,11.57
2023-10-23T09:11:40.795Z,11.67
2023-10-23T09:14:10.230Z,11.72
2023-10-23T09:16:38.486Z,11.71
2023-10-23T09:19:06.667Z,11.84
2023-10-23T09:21:35.891Z,11.81
2023-10-23T09:24:05.659Z,11.92
2023-10-23T09:26:33.735Z,11.90
2023-10-23T09:29:01.699Z,11.89
2023-10-23T09:31:31.287Z,11.98
2023-10-23T09:33:59.449Z,12.09
2023-10-23T09:36:28.451Z,12.14
2023-10-23T09:39:01.064Z,12.16
2023-10-23T09:41:30.876Z,12.26
2023-10-23T09:44:01.973Z,12.26
2023-10-23T09:46:34.225Z,12.28
2023-10-23T09:49:05.029Z,12.18
2023-10-23T09:51:39.966Z,12.23
2023-10-23T09:54:16.782Z,12.39
2023-10-23T09:56:49.882Z,12.48
2023-10-23T09:59:19.685Z,12.56
2023-10-23T10:01:52.546Z,12.66
2023-10-23T10:04:27.461Z,12.75
2023-10-23T10:06:57.477Z,12.76
2023-10-23T10:09:27.133Z,12.80
2023-10-23T10:11:57.184Z,12.89
2023-10-23T10:14:26.606Z,13.02
2023-10-23T10:16:57.903Z,13.05
2023-10-23T10:19:27.936Z,13.08
2023-10-23T10:22:05.693Z,13.19
2023-10-23T10:24:35.803Z,13.21
2023-10-23T10:27:05.441Z,13.35
2023-10-23T10:29:34.082Z,13.37
2023-10-23T10:32:11.209Z,13.54
2023-10-23T10:34:56.735Z,13.67
2023-10-23T10:37:28.694Z,13.70
2023-10-23T10:40:07.754Z,13.74
2023-10-23T10:42:43.453Z,13.89
2023-10-23T10:45:18.240Z,13.93
2023-10-23T10:47:49.760Z,14.01
2023-10-23T10:50:35.267Z,14.07
2023-10-23T10:53:04.895Z,13.96
2023-10-23T10:55:33.567Z,14.06
2023-10-23T10:58:01.959Z,14.13
2023-10-23T11:00:34.469Z,14.17
2023-10-23T11:03:04.462Z,14.28
2023-10-23T11:05:33.501Z,14.42
2023-10-23T11:08:02.051Z,14.47
2023-10-23T11:10:30.150Z,14.53
2023-10-23T11:12:58.106Z,14.59
2023-10-23T11:15:26.006Z,14.50
2023-10-23T11:17:54.855Z,14.58
2023-10-23T11:20:24.182Z,14.66
2023-10-23T11:22:52.110Z,14.65
2023-10-23T11:25:20.060Z,14.75
2023-10-23T11:27:52.350Z,14.76
2023-10-23T11:30:20.604Z,14.80
2023-10-23T11:32:52.361Z,14.89
2023-10-23T11:35:20.428Z,14.87
2023-10-23T11:37:50.028Z,14.84
2023-10-23T11:40:21.986Z,14.95
2023-10-23T11:42:54.933Z,14.96
2023-10-23T11:45:23.732Z,14.88
2023-10-23T11:47:53.491Z,14.96
2023-10-23T11:50:23.045Z,14.93
2023-10-23T11:52:52.610Z,14.92
2023-10-23T11:55:21.497Z,15.01
2023-10-23T11:57:52.096Z,15.03
2023-10-23T12:00:23.270Z,14.92
2023-10-23T12:02:52.171Z,14.91
2023-10-23T12:05:22.812Z,15.03
2023-10-23T12:07:54.254Z,15.02
2023-10-23T12:10:25.802Z,15.11
2023-10-23T12:12:55.024Z,15.18
2023-10-23T12:15:24.438Z,15.15
2023-10-23T12:17:53.118Z,15.06
2023-10-23T12:20:23.166Z,15.02
2023-10-23T12:22:53.348Z,15.12
2023-10-23T12:25:21.983Z,15.24
2023-10-23T12:27:50.102Z,15.27
2023-10-23T12:30:21.694Z,15.31
2023-10-23T12:33:11.483Z,15.23
2023-10-23T12:35:42.711Z,15.31
2023-10-23T12:38:12.996Z,15.38
2023-10-23T12:40:42.662Z,15.40
2023-10-23T12:43:11.018Z,15.38
2023-10-23T12:45:39.075Z,15.46
2023-10-23T12:48:07.342Z,15.44
2023-10-23T12:50:35.500Z,15.42
2023-10-23T12:53:04.051Z,15.48
2023-10-23T12:55:33.436Z,15.47
2023-10-23T12:58:03.351Z,15.56
2023-10-23T13:00:31.457Z,15.65
2023-10-23T13:02:59.391Z,15.70
2023-10-23T13:05:27.372Z,15.83
2023-10-23T13:07:55.996Z,16.20
2023-10-23T13:10:24.016Z,16.46
2023-10-23T13:12:53.268Z,16.47
2023-10-23T13:15:21.445Z,16.35
2023-10-23T13:17:49.432Z,16.32
2023-10-23T13:21:31.047Z,16.25
2023-10-23T13:23:05.506Z,16.21
2023-10-23T13:25:35.888Z,16.11
2023-10-23T13:28:06.161Z,16.10
2023-10-23T13:30:34.223Z,16.05
2023-10-23T13:33:02.610Z,16.07
2023-10-23T13:35:30.737Z,15.99
2023-10-23T13:37:59.050Z,15.99
2023-10-23T13:40:27.040Z,15.98
2023-10-23T13:42:55.291Z,15.96
2023-10-23T13:45:24.682Z,15.94
2023-10-23T13:47:53.146Z,15.92
2023-10-23T13:50:22.156Z,15.86
2023-10-23T13:52:50.085Z,16.06
2023-10-23T13:55:18.062Z,16.21
2023-10-23T13:57:46.087Z,16.35
2023-10-23T14:00:17.290Z,16.30
2023-10-23T14:02:47.192Z,16.20
2023-10-23T14:05:15.153Z,15.97
2023-10-23T14:07:43.295Z,15.91
2023-10-23T14:10:12.079Z,15.88
2023-10-23T14:12:52.439Z,15.80
2023-10-23T14:15:21.131Z,15.75
2023-10-23T14:17:50.612Z,15.70
2023-10-23T14:20:18.864Z,15.66
2023-10-23T14:22:46.901Z,15.60
2023-10-23T14:25:14.969Z,15.55
2023-10-23T14:27:43.091Z,15.51
2023-10-23T14:30:12.154Z,15.49
2023-10-23T14:32:40.623Z,15.47
2023-10-23T14:35:11.241Z,15.42
2023-10-23T14:37:39.495Z,15.40
2023-10-23T14:40:10.936Z,15.35
2023-10-23T14:42:39.345Z,15.32
2023-10-23T14:45:10.847Z,15.30
2023-10-23T14:47:39.894Z,15.27
2023-10-23T14:50:10.045Z,15.26
2023-10-23T14:52:38.089Z,15.26
2023-10-23T14:55:07.286Z,15.21
2023-10-23T14:57:35.253Z,15.17
2023-10-23T15:00:04.867Z,15.13
2023-10-23T15:02:33.010Z,15.09
2023-10-23T15:05:01.544Z,15.06
2023-10-23T15:07:31.036Z,15.01
2023-10-23T15:09:59.233Z,14.92
2023-10-23T15:12:27.909Z,14.95
2023-10-23T15:14:55.901Z,14.90
2023-10-23T15:17:24.003Z,14.86
2023-10-23T15:19:55.871Z,14.82
2023-10-23T15:22:24.065Z,14.78
2023-10-23T15:24:53.414Z,14.75
2023-10-23T15:27:21.333Z,14.69
2023-10-23T15:29:49.365Z,14.65
2023-10-23T15:32:17.248Z,14.62
2023-10-23T15:34:45.232Z,14.57
2023-10-23T15:37:13.182Z,14.53
2023-10-23T15:39:44.033Z,14.48
2023-10-23T15:42:13.380Z,14.39
2023-10-23T15:44:43.124Z,14.34
2023-10-23T15:47:11.274Z,14.27
2023-10-23T15:49:39.522Z,14.24
2023-10-23T15:52:08.102Z,14.17
2023-10-23T15:54:36.030Z,14.12
2023-10-23T15:57:04.720Z,14.05
2023-10-23T15:59:34.262Z,13.99
2023-10-23T16:02:02.417Z,13.93
2023-10-23T16:04:30.548Z,13.88
2023-10-23T16:06:58.631Z,13.81
2023-10-23T16:09:28.119Z,13.75
2023-10-23T16:11:57.087Z,13.73
2023-10-23T16:17:12.231Z,13.61
2023-10-23T16:19:40.245Z,13.56
2023-10-23T16:22:08.412Z,13.51
2023-10-23T16:24:36.475Z,13.49
2023-10-23T16:27:05.522Z,13.45
2023-10-23T16:29:33.514Z,13.45
2023-10-23T16:32:03.116Z,13.42
2023-10-23T16:34:31.304Z,13.39
2023-10-23T16:36:59.737Z,13.36
2023-10-23T16:39:31.668Z,13.34
2023-10-23T16:41:59.857Z,13.18
2023-10-23T16:44:34.706Z,13.29
2023-10-23T16:47:14.132Z,13.26
2023-10-23T16:49:42.132Z,13.18
2023-10-23T16:52:10.167Z,13.15
2023-10-23T16:54:38.528Z,13.10
2023-10-23T16:57:06.844Z,13.09
2023-10-23T16:59:35.093Z,13.05
2023-10-23T17:02:03.191Z,13.07
2023-10-23T17:04:32.864Z,13.05
2023-10-23T17:07:01.195Z,13.01
2023-10-23T17:09:29.875Z,12.98
2023-10-23T17:11:57.737Z,12.94
2023-10-23T17:14:25.763Z,12.95
2023-10-23T17:16:53.863Z,12.94
2023-10-23T17:19:21.900Z,12.91
2023-10-23T17:21:51.209Z,12.89
2023-10-23T17:24:19.279Z,12.84
2023-10-23T17:26:48.009Z,12.84
2023-10-23T17:29:16.034Z,12.86
2023-10-23T17:31:44.145Z,12.86
2023-10-23T17:34:12.213Z,12.87
2023-10-23T17:36:40.145Z,12.83
2023-10-23T17:39:09.471Z,12.79
2023-10-23T17:41:37.842Z,12.78
2023-10-23T17:44:06.500Z,12.76
2023-10-23T17:46:36.487Z,12.71
2023-10-23T17:49:05.033Z,12.69
2023-10-23T17:51:33.253Z,12.68
2023-10-23T17:54:05.390Z,12.58
2023-10-23T17:56:37.465Z,12.56
2023-10-23T17:59:06.302Z,12.51
2023-10-23T18:01:34.483Z,12.48
2023-10-23T18:04:02.524Z,12.49
2023-10-23T18:06:30.523Z,12.48
2023-10-23T18:08:59.119Z,12.45
2023-10-23T18:11:27.461Z,12.42
2023-10-23T18:13:57.441Z,12.40
2023-10-23T18:16:25.567Z,12.37
2023-10-23T18:18:53.584Z,12.35
2023-10-23T18:21:21.618Z,12.31
2023-10-23T18:23:49.510Z,12.29
2023-10-23T18:26:19.495Z,12.32
2023-10-23T18:28:48.012Z,12.29
2023-10-23T18:31:22.089Z,12.29
2023-10-23T18:33:53.975Z,12.20
2023-10-23T18:36:23.083Z,12.20
2023-10-23T18:38:51.166Z,12.15
2023-10-23T18:41:19.855Z,12.09
2023-10-23T18:43:48.142Z,12.10
2023-10-23T18:46:17.714Z,12.04
2023-10-23T18:48:46.222Z,11.98
2023-10-23T18:51:14.766Z,12.03
2023-10-23T18:53:42.910Z,12.03
2023-10-23T18:56:11.420Z,11.97
2023-10-23T18:58:39.437Z,11.97
2023-10-23T19:01:09.534Z,11.93
2023-10-23T19:03:39.836Z,11.87
2023-10-23T19:06:08.598Z,11.89
2023-10-23T19:08:37.222Z,11.75
2023-10-23T19:11:05.607Z,11.73
2023-10-23T19:13:34.914Z,11.83
2023-10-23T19:16:04.389Z,11.70
2023-10-23T19:18:33.078Z,11.69
2023-10-23T19:21:03.280Z,11.72
2023-10-23T19:23:31.390Z,11.71
2023-10-23T19:25:59.376Z,11.67
2023-10-23T19:28:27.335Z,11.66
2023-10-23T19:30:56.671Z,11.60
2023-10-23T19:33:25.282Z,11.60
2023-10-23T19:35:54.387Z,11.63
2023-10-23T19:38:24.313Z,11.54
2023-10-23T19:40:53.866Z,11.46
2023-10-23T19:43:27.124Z,11.46
2023-10-23T19:45:56.060Z,11.43
2023-10-23T19:48:24.631Z,11.43
2023-10-23T19:50:54.421Z,11.49
2023-10-23T19:53:24.573Z,11.53
2023-10-23T19:55:53.878Z,11.53
2023-10-23T19:58:22.329Z,11.47
2023-10-23T20:00:50.684Z,11.48
2023-10-23T20:03:18.682Z,11.48
2023-10-23T20:05:46.983Z,11.48
2023-10-23T20:08:15.091Z,11.49
2023-10-23T20:10:44.993Z,11.46
2023-10-23T20:13:13.078Z,11.42
2023-10-23T20:15:41.183Z,11.42
2023-10-23T20:18:09.731Z,11.37
2023-10-23T20:20:37.650Z,11.23
2023-10-23T20:23:06.175Z,11.15
2023-10-23T20:25:34.559Z,11.13
2023-10-23T20:28:05.358Z,11.09
2023-10-23T20:30:35.094Z,11.04
2023-10-23T20:33:03.968Z,11.14
2023-10-23T20:35:32.028Z,11.19
2023-10-23T20:38:00.122Z,11.23
2023-10-23T20:40:28.132Z,11.26
2023-10-23T20:42:56.123Z,11.39
2023-10-23T20:45:25.473Z,11.32
2023-10-23T20:47:53.590Z,11.32
2023-10-23T20:50:24.310Z,11.36
2023-10-23T20:52:52.403Z,11.51
2023-10-23T20:55:20.364Z,11.48
2023-10-23T20:57:48.240Z,11.53
2023-10-23T21:00:16.763Z,11.48
2023-10-23T21:02:46.096Z,11.53
2023-10-23T21:05:14.269Z,11.54
2023-10-23T21:07:42.323Z,11.50
2023-10-23T21:10:10.674Z,11.58
2023-10-23T21:12:38.681Z,11.63
2023-10-23T21:15:07.573Z,11.55
2023-10-23T21:17:36.070Z,11.48
2023-10-23T21:20:06.220Z,11.65
2023-10-23T21:22:34.239Z,11.69
2023-10-23T21:25:02.370Z,11.69
2023-10-23T21:27:30.364Z,11.63
2023-10-23T21:29:58.331Z,11.57
2023-10-23T21:32:26.616Z,11.63
2023-10-23T21:34:54.562Z,11.72
2023-10-23T21:37:24.022Z,11.74
2023-10-23T21:39:52.187Z,11.65
2023-10-23T21:42:20.222Z,11.68
2023-10-23T21:44:48.130Z,11.70
2023-10-23T21:47:16.099Z,11.78
2023-10-23T21:49:45.406Z,11.78
2023-10-23T21:52:13.698Z,11.70
2023-10-23T21:54:43.753Z,11.72
2023-10-23T21:57:20.616Z,11.74
2023-10-23T21:59:50.659Z,11.78
2023-10-23T22:02:19.073Z,11.74
2023-10-23T22:04:53.611Z,11.78
2023-10-23T22:07:22.015Z,11.69
2023-10-23T22:09:52.011Z,11.73
2023-10-23T22:12:20.529Z,11.82
2023-10-23T22:14:48.889Z,11.76
2023-10-23T22:17:16.975Z,11.64
2023-10-23T22:19:45.136Z,11.65
2023-10-23T22:22:13.240Z,11.61
2023-10-23T22:24:41.407Z,11.73
2023-10-23T22:27:10.864Z,11.78
2023-10-23T22:29:38.774Z,11.82
2023-10-23T22:32:07.016Z,11.87
2023-10-23T22:34:35.611Z,11.85
2023-10-23T22:37:58.681Z,11.76
2023-10-23T22:39:52.697Z,11.79
2023-10-23T22:42:22.128Z,11.83
2023-10-23T22:44:50.039Z,11.86
2023-10-23T22:47:18.301Z,11.77
2023-10-23T22:49:46.874Z,11.73
2023-10-23T22:52:15.458Z,11.75
2023-10-23T22:54:59.211Z,11.64
2023-10-23T22:57:30.193Z,11.83
2023-10-23T22:59:58.639Z,11.76
2023-10-23T23:02:27.313Z,11.75
2023-10-23T23:04:55.752Z,11.77
2023-10-23T23:07:25.112Z,11.80
2023-10-23T23:09:53.594Z,11.78
2023-10-23T23:12:22.072Z,11.80
2023-10-23T23:14:52.054Z,11.83
2023-10-23T23:17:24.303Z,11.66
2023-10-23T23:19:53.227Z,11.77
2023-10-23T23:22:21.566Z,11.82
2023-10-23T23:24:49.555Z,11.81
2023-10-23T23:27:17.422Z,11.80
2023-10-23T23:29:45.332Z,11.73
2023-10-23T23:32:14.737Z,11.66
2023-10-23T23:34:42.791Z,11.70
2023-10-23T23:37:10.875Z,11.72
2023-10-23T23:39:41.772Z,11.84
2023-10-23T23:42:09.683Z,11.72
2023-10-23T23:44:37.711Z,11.63
2023-10-23T23:47:05.829Z,11.67
2023-10-23T23:49:35.225Z,11.75
2023-10-23T23:52:03.192Z,11.74
2023-10-23T23:54:31.079Z,11.66
2023-10-23T23:56:59.214Z,11.80
2023-10-23T23:59:27.125Z,11.74
